Oak Hammock Air Park

CAV9 · 曼尼托巴, 加拿大

罗盘
风向 的 风向 250°
风: 8 kt, 3 beaufort

添加一条跑道以查看侧风和逆风信息。

添置 跑道
0 5.000 10.000 15.000 20.000
BKN 15.000 ft
SPECI CYWG 031300Z 25008KT 15SM BKN150 M22/M25 A3017 RMK AC5 SLP246

METAR Oak Hammock Air Park - CAV9

Oak Hammock Air Park是,加拿大中的小机场。 视场标高为755 ft。 该领域的国际民航组织标志是CAV9.

这份报告是针对2022年12月3日 07:00, 当地时间在Winnipeg / James Armstrong Richardson International Airport进行的。

机场观察

风向为250°,速度为8 kt。

可见度为15 mi。

有碎云在15.000 ft的高度。 破损或更高的上限为15.000 ft。

温度为-22 °C,阵风为-35 °C。 露点为-25 °C,相对湿度为77%。 海平面上的气压为30,17 inHg (QNH)。

白天

今天,太阳从08:08升起,在16:27降落。 这适用于Oak Hammock Air Park,世界夏令时可能有所不同。 当地时间与世界标准时间之间的时差为-6 小时。 当前,没有夏令时有效。

公司介绍

我们没有关于这个机场的公司信息。

体会

到Vliegles.nl去找飞行课程,跳伞和其他飞行体验。 浏览页面,了解Oak Hammock Air Park附近所有可用的活动。 你也可以使用搜索功能来寻找你所在地附近的特定飞行课程、跳伞或其他飞行体验。

乌云

15.000 ft BKN 碎云

温度 & 天气

温度 -22 °C
露点 -25 °C
相对湿度 77%
风寒 -35 °C
Kp-index 1 (0-9)

评论

SLP246海平面压力为30,26 inHg (30,26 inHg)
AC5

白天

日出
08:08 (42m)
中午
12:18
日落
16:29

小工具

你想在你的网站上有一个关于Oak Hammock Air Park的当前航空天气(METAR)的小部件吗?

显示HTML代码

我们和第三方通过cookies跟踪您在我们网站上的互联网行为。如果你继续,我们认为你同意我们的饼干政策